Time;durP1;ratioP1;P1;durP2;ratioP2;P2;SDS_P1;SDS_P2;PMS_P1;PMS_P2;Temp;Humidity;BMP_temperature;BMP_pressure;BME280_temperature;BME280_humidity;BME280_pressure;Samples;Min_cycle;Max_cycle;Signal;HPM_P1;HPM_P2
2022/06/23 00:01:31;;;;;;;;;21.67;21.67;;;;;22.76;87.01;100232.19;6256374;22;45368;-81
2022/06/23 00:03:58;;;;;;;;;27.33;25.67;;;;;22.61;95.92;100235.56;6256351;22;45390;-80
2022/06/23 00:06:38;;;;;;;;;25.67;25.67;;;;;22.52;95.27;100235.97;6255157;22;45322;-80
2022/06/23 00:09:37;;;;;;;;;30.33;29.00;;;;;22.42;96.39;100240.91;6228299;22;45358;-80
2022/06/23 00:12:28;;;;;;;;;29.33;29.00;;;;;22.30;100.00;100233.28;6256030;22;45029;-80
2022/06/23 00:15:27;;;;;;;;;26.33;25.67;;;;;22.22;100.00;100224.56;6253648;22;45320;-80
2022/06/23 00:18:02;;;;;;;;;27.00;27.00;;;;;22.18;100.00;100226.56;6190049;22;44914;-80
2022/06/23 00:20:32;;;;;;;;;27.00;26.33;;;;;22.17;100.00;100230.19;6225185;22;45332;-80
2022/06/23 00:23:10;;;;;;;;;27.33;26.33;;;;;22.16;100.00;100231.16;6198103;22;46812;-80
2022/06/23 00:25:52;;;;;;;;;26.67;26.67;;;;;22.13;100.00;100223.16;6223956;22;44916;-80
2022/06/23 00:28:26;;;;;;;;;27.00;25.00;;;;;22.12;100.00;100211.44;6199369;22;45356;-81
2022/06/23 00:31:30;;;;;;;;;27.00;23.67;;;;;22.18;100.00;100221.13;6228585;22;44706;-81
2022/06/23 00:37:19;;;;;;;;;25.33;24.33;;;;;22.16;100.00;100218.50;6228206;22;45474;-80
2022/06/23 00:39:59;;;;;;;;;25.33;25.33;;;;;22.07;100.00;100213.44;6199742;22;45293;-80
2022/06/23 00:42:33;;;;;;;;;29.00;27.67;;;;;22.04;100.00;100218.13;6229266;22;45433;-81
2022/06/23 00:45:19;;;;;;;;;28.00;27.00;;;;;21.95;100.00;100208.53;6197479;22;46841;-81
2022/06/23 00:47:50;;;;;;;;;16.00;16.00;;;;;21.95;100.00;100217.53;6223638;22;44830;-81
2022/06/23 00:50:25;;;;;;;;;27.33;27.33;;;;;21.94;100.00;100209.50;6197298;22;45241;-80
2022/06/23 00:53:00;;;;;;;;;28.67;28.67;;;;;21.95;100.00;100200.44;6198024;22;45503;-80
2022/06/23 00:55:35;;;;;;;;;30.33;30.00;;;;;21.96;100.00;100210.31;6225018;22;45308;-81
2022/06/23 00:58:32;;;;;;;;;30.00;28.00;;;;;21.93;100.00;100205.91;6197686;22;44665;-80
2022/06/23 01:01:17;;;;;;;;;27.00;26.00;;;;;21.86;100.00;100203.53;6159705;23;45402;-80
2022/06/23 01:03:59;;;;;;;;;25.67;25.33;;;;;21.92;100.00;100204.16;6161310;23;45439;-80
2022/06/23 01:06:46;;;;;;;;;28.00;27.33;;;;;21.98;100.00;100205.72;6159159;23;45314;-79
2022/06/23 01:09:17;;;;;;;;;28.67;27.33;;;;;21.97;100.00;100206.66;6133610;23;45371;-80
2022/06/23 01:11:49;;;;;;;;;34.00;31.33;;;;;21.89;100.00;100201.56;6134824;23;44810;-80
2022/06/23 01:14:35;;;;;;;;;29.67;28.67;;;;;21.87;100.00;100205.28;6134490;23;45379;-79
2022/06/23 01:17:03;;;;;;;;;32.67;30.00;;;;;21.85;100.00;100208.03;6181593;23;45177;-80
2022/06/23 01:19:37;;;;;;;;;25.50;25.00;;;;;21.83;100.00;100204.50;6164117;23;44793;-79
2022/06/23 01:22:06;;;;;;;;;28.33;28.00;;;;;21.78;100.00;100185.75;6164192;23;45325;-80
2022/06/23 01:24:56;;;;;;;;;28.33;27.33;;;;;21.81;100.00;100192.00;6164233;23;45441;-79
2022/06/23 01:27:34;;;;;;;;;27.33;26.33;;;;;21.81;100.00;100197.41;6191334;23;45459;-80
2022/06/23 01:30:05;;;;;;;;;27.33;24.33;;;;;21.75;100.00;100195.81;6165256;23;44980;-81
2022/06/23 01:32:38;;;;;;;;;30.00;30.00;;;;;21.70;100.00;100192.44;6164412;23;45450;-80
2022/06/23 01:35:04;;;;;;;;;30.67;30.00;;;;;21.65;100.00;100200.72;6189945;23;45394;-81
2022/06/23 01:37:40;;;;;;;;;26.33;26.33;;;;;21.63;100.00;100201.75;6214555;22;45348;-80
2022/06/23 01:40:28;;;;;;;;;28.67;28.67;;;;;21.59;100.00;100206.38;6252551;22;45336;-81
2022/06/23 01:43:12;;;;;;;;;29.00;27.33;;;;;21.51;100.00;100192.28;6252434;22;45709;-80
2022/06/23 01:45:56;;;;;;;;;25.00;23.00;;;;;21.43;100.00;100189.00;6255545;22;45299;-80
2022/06/23 01:51:29;;;;;;;;;30.67;30.33;;;;;21.31;100.00;100201.16;6254491;22;45453;-80
2022/06/23 01:54:26;;;;;;;;;33.33;30.00;;;;;21.31;100.00;100195.75;6228609;22;44853;-80
2022/06/23 01:57:09;;;;;;;;;33.33;31.00;;;;;21.32;100.00;100195.69;6254639;22;45284;-80
2022/06/23 01:59:56;;;;;;;;;33.67;31.67;;;;;21.32;100.00;100192.97;6254808;22;45478;-80
2022/06/23 02:02:48;;;;;;;;;32.67;30.33;;;;;21.30;100.00;100188.59;6253817;22;45687;-81
2022/06/23 02:05:21;;;;;;;;;37.67;33.00;;;;;21.26;100.00;100181.53;6229271;22;44731;-81
2022/06/23 02:08:05;;;;;;;;;33.67;31.00;;;;;21.23;100.00;100187.94;6254826;22;45009;-80
2022/06/23 02:10:44;;;;;;;;;35.00;32.33;;;;;21.27;100.00;100183.28;6254024;22;47099;-80
2022/06/23 02:13:36;;;;;;;;;34.67;31.00;;;;;21.27;100.00;100183.28;6253914;22;45472;-80
2022/06/23 02:16:01;;;;;;;;;36.00;32.33;;;;;21.28;100.00;100183.22;6220574;22;45393;-80
2022/06/23 02:18:30;;;;;;;;;34.33;32.00;;;;;21.31;100.00;100193.94;6255386;22;45412;-80
2022/06/23 02:21:16;;;;;;;;;33.67;31.33;;;;;21.36;100.00;100194.63;6228426;22;46877;-80
2022/06/23 02:23:52;;;;;;;;;35.00;32.00;;;;;21.32;100.00;100175.88;6256372;22;45739;-81
2022/06/23 02:26:35;;;;;;;;;33.67;31.67;;;;;21.35;100.00;100183.91;6256385;22;45363;-81
2022/06/23 02:29:18;;;;;;;;;34.00;31.67;;;;;21.28;100.00;100180.53;6229441;22;45394;-80
2022/06/23 02:32:01;;;;;;;;;40.00;35.33;;;;;21.27;100.00;100178.78;6256210;22;45426;-81
2022/06/23 02:34:37;;;;;;;;;37.00;32.33;;;;;21.27;100.00;100184.19;6254849;22;45358;-80
2022/06/23 02:37:07;;;;;;;;;34.00;30.67;;;;;21.29;100.00;100182.31;6258131;22;45358;-81
2022/06/23 02:39:46;;;;;;;;;32.67;30.67;;;;;21.36;100.00;100167.56;6257096;22;45448;-80
2022/06/23 02:42:30;;;;;;;;;32.33;31.00;;;;;21.40;100.00;100167.47;6257299;22;45472;-81
2022/06/23 02:44:56;;;;;;;;;37.33;32.33;;;;;21.40;100.00;100178.28;6255459;22;45765;-80
2022/06/23 02:47:40;;;;;;;;;40.67;35.33;;;;;21.43;100.00;100181.78;6255708;22;45668;-80
2022/06/23 02:50:25;;;;;;;;;35.67;31.67;;;;;21.46;100.00;100178.94;6257634;22;45820;-80
2022/06/23 02:53:08;;;;;;;;;34.00;32.00;;;;;21.51;100.00;100173.34;6228341;22;47059;-80
2022/06/23 02:55:33;;;;;;;;;36.00;33.33;;;;;21.59;100.00;100176.63;6256788;22;45346;-80
2022/06/23 02:58:19;;;;;;;;;37.00;32.33;;;;;21.64;100.00;100171.91;6229268;22;45344;-80
2022/06/23 03:00:51;;;;;;;;;28.33;28.00;;;;;21.67;100.00;100177.22;6255104;22;45323;-79
2022/06/23 03:03:25;;;;;;;;;31.00;28.00;;;;;21.68;100.00;100178.97;6226974;22;47233;-80
2022/06/23 03:06:21;;;;;;;;;27.00;23.67;;;;;21.69;100.00;100175.34;6227797;22;45382;-81
2022/06/23 03:09:18;;;;;;;;;18.00;17.00;;;;;21.75;100.00;100185.91;6257012;22;45730;-81
2022/06/23 03:12:00;;;;;;;;;10.00;10.00;;;;;21.80;100.00;100188.41;6228146;22;45139;-79
2022/06/23 03:14:53;;;;;;;;;10.00;10.00;;;;;21.85;100.00;100190.91;6227212;22;47882;-79
2022/06/23 03:17:24;;;;;;;;;8.00;8.00;;;;;21.85;100.00;100185.50;6253902;22;45428;-80
2022/06/23 03:20:08;;;;;;;;;10.33;9.00;;;;;21.86;100.00;100190.00;6252889;22;45366;-80
2022/06/23 03:22:40;;;;;;;;;10.00;10.00;;;;;21.85;100.00;100197.22;6254987;22;45315;-80
2022/06/23 03:25:20;;;;;;;;;7.33;6.67;;;;;21.82;100.00;100193.78;6226477;22;47933;-80
2022/06/23 03:28:03;;;;;;;;;8.00;8.00;;;;;21.83;100.00;100198.22;6251459;22;45676;-80
2022/06/23 03:30:49;;;;;;;;;6.00;6.00;;;;;21.77;100.00;100197.56;6227870;22;45416;-80
2022/06/23 03:36:46;;;;;;;;;5.67;5.67;;;;;21.74;100.00;100210.31;6255150;22;45620;-81
2022/06/23 03:42:45;;;;;;;;;8.33;8.33;;;;;21.67;100.00;100223.22;6257751;22;45383;-80
2022/06/23 03:45:24;;;;;;;;;5.00;5.00;;;;;21.64;100.00;100226.03;6259233;22;45825;-80
2022/06/23 03:48:32;;;;;;;;;6.00;6.00;;;;;21.64;100.00;100219.75;6255238;22;46686;-80
2022/06/23 03:51:11;;;;;;;;;6.00;6.00;;;;;21.64;100.00;100220.63;6257892;22;45460;-81
2022/06/23 03:53:36;;;;;;;;;6.33;5.00;;;;;21.64;100.00;100228.75;6230141;22;45322;-80
2022/06/23 03:56:08;;;;;;;;;6.00;5.33;;;;;21.67;100.00;100235.84;6230898;22;45320;-80
2022/06/23 03:58:40;;;;;;;;;7.33;7.33;;;;;21.62;100.00;100236.06;6230884;22;46941;-81
2022/06/23 04:01:14;;;;;;;;;7.00;7.00;;;;;21.56;100.00;100239.88;6255171;22;45435;-81
2022/06/23 04:03:48;;;;;;;;;6.67;6.00;;;;;21.52;100.00;100248.19;6253788;22;45406;-81
2022/06/23 04:06:41;;;;;;;;;7.67;6.00;;;;;21.51;100.00;100243.69;6229025;22;45224;-81
2022/06/23 04:09:10;;;;;;;;;6.33;5.00;;;;;21.48;100.00;100238.41;6228906;22;47416;-81
2022/06/23 04:12:13;;;;;;;;;8.00;5.33;;;;;21.51;100.00;100246.41;6228825;22;45272;-80
2022/06/23 04:14:59;;;;;;;;;4.00;4.00;;;;;21.45;100.00;100252.97;6254214;22;45269;-81
2022/06/23 04:17:38;;;;;;;;;7.00;5.67;;;;;21.43;100.00;100259.34;6226526;22;45463;-81
2022/06/23 04:20:13;;;;;;;;;4.33;4.33;;;;;21.42;100.00;100255.72;6252179;22;47015;-81
2022/06/23 04:22:40;;;;;;;;;7.00;7.00;;;;;21.41;100.00;100266.59;6225805;22;45271;-81
2022/06/23 04:25:11;;;;;;;;;6.00;5.67;;;;;21.36;100.00;100262.25;6228689;22;44760;-81
2022/06/23 04:27:54;;;;;;;;;5.33;5.33;;;;;21.36;100.00;100267.66;6255275;22;45802;-80
2022/06/23 04:30:27;;;;;;;;;4.00;4.00;;;;;21.33;100.00;100266.88;6253681;22;46797;-81
2022/06/23 04:32:55;;;;;;;;;6.33;6.33;;;;;21.30;100.00;100267.91;6256127;22;45366;-81
2022/06/23 04:35:27;;;;;;;;;6.00;5.00;;;;;21.31;100.00;100269.69;6229202;22;44761;-81
2022/06/23 04:38:11;;;;;;;;;4.67;4.67;;;;;21.36;100.00;100280.31;6230764;22;45355;-81
2022/06/23 04:40:43;;;;;;;;;9.00;5.33;;;;;21.35;100.00;100279.44;6230093;22;46976;-80
2022/06/23 04:43:17;;;;;;;;;7.00;6.00;;;;;21.34;100.00;100287.59;6257327;22;45433;-81
2022/06/23 04:45:54;;;;;;;;;5.33;5.33;;;;;21.28;100.00;100283.31;6254790;22;45568;-80
2022/06/23 04:48:31;;;;;;;;;4.33;4.33;;;;;21.20;100.00;100258.38;6254392;22;45270;-81
2022/06/23 04:51:03;;;;;;;;;6.00;6.00;;;;;21.26;100.00;100268.97;6254640;22;45334;-81
2022/06/23 04:53:55;;;;;;;;;5.00;5.00;;;;;21.35;100.00;100278.56;6254220;22;45207;-81
2022/06/23 04:56:33;;;;;;;;;4.00;4.00;;;;;21.37;100.00;100284.81;6254189;22;44701;-81
2022/06/23 04:59:12;;;;;;;;;5.00;3.67;;;;;21.37;100.00;100282.97;6227800;22;45541;-81
2022/06/23 05:01:41;;;;;;;;;4.67;4.67;;;;;21.34;100.00;100291.19;6252672;22;46675;-81
2022/06/23 05:04:19;;;;;;;;;4.00;4.00;;;;;21.33;100.00;100292.13;6254906;22;45523;-81
2022/06/23 05:06:49;;;;;;;;;6.00;6.00;;;;;21.30;100.00;100285.97;6253079;22;44740;-81
2022/06/23 05:09:19;;;;;;;;;4.33;4.33;;;;;21.30;100.00;100286.84;6252129;22;45365;-81
2022/06/23 05:11:52;;;;;;;;;5.00;5.00;;;;;21.37;100.00;100282.09;6253218;22;45369;-81
2022/06/23 05:14:38;;;;;;;;;6.00;6.00;;;;;21.34;100.00;100282.19;6227826;22;45389;-81
2022/06/23 05:17:14;;;;;;;;;6.00;4.67;;;;;21.38;100.00;100289.25;6253127;22;44793;-81
2022/06/23 05:19:42;;;;;;;;;5.00;5.00;;;;;21.39;100.00;100291.03;6227960;22;44807;-81
2022/06/23 05:22:26;;;;;;;;;7.00;5.67;;;;;21.43;100.00;100295.41;6227051;22;46888;-81
2022/06/23 05:24:53;;;;;;;;;7.33;5.33;;;;;21.49;100.00;100296.97;6228426;22;45500;-80
2022/06/23 05:27:32;;;;;;;;;7.00;7.00;;;;;21.53;100.00;100295.94;6256581;22;45267;-81
2022/06/23 05:30:26;;;;;;;;;5.33;5.33;;;;;21.58;100.00;100299.34;6229383;22;45510;-80
2022/06/23 05:33:12;;;;;;;;;9.00;7.00;;;;;21.65;100.00;100302.69;6257111;22;48060;-81
2022/06/23 05:35:43;;;;;;;;;7.67;6.33;;;;;21.65;100.00;100302.69;6258309;22;45411;-81
2022/06/23 05:38:11;;;;;;;;;5.00;4.33;;;;;21.70;100.00;100300.69;6257461;22;45652;-80
2022/06/23 05:40:52;;;;;;;;;6.67;5.00;;;;;21.77;100.00;100304.91;6231846;22;45206;-81
2022/06/23 05:43:18;;;;;;;;;5.00;5.00;;;;;21.85;100.00;100294.66;6257131;22;46684;-81
2022/06/23 05:45:57;;;;;;;;;4.00;4.00;;;;;22.11;100.00;100296.31;6228995;22;45252;-81
2022/06/23 05:48:43;;;;;;;;;5.00;4.33;;;;;22.29;100.00;100283.00;6228249;22;44836;-80
2022/06/23 05:51:20;;;;;;;;;6.00;6.00;;;;;22.45;100.00;100284.13;6255530;22;44768;-80
2022/06/23 05:53:57;;;;;;;;;7.33;5.33;;;;;22.78;100.00;100283.59;6227984;22;45260;-80
2022/06/23 05:56:30;;;;;;;;;7.33;6.33;;;;;23.12;100.00;100301.13;6255027;22;44749;-80
2022/06/23 05:59:01;;;;;;;;;6.33;5.33;;;;;23.28;100.00;100288.63;6255800;22;44795;-80
2022/06/23 06:01:43;;;;;;;;;7.67;5.67;;;;;23.21;100.00;100286.25;6255591;22;45200;-80
2022/06/23 06:04:24;;;;;;;;;7.00;7.00;;;;;23.20;100.00;100285.41;6229930;22;47301;-81
2022/06/23 06:06:50;;;;;;;;;7.33;7.33;;;;;23.15;100.00;100279.31;6228806;22;45438;-80
2022/06/23 06:09:38;;;;;;;;;8.00;7.00;;;;;23.18;100.00;100276.44;6257317;22;45332;-82
2022/06/23 06:12:13;;;;;;;;;9.67;8.67;;;;;23.38;100.00;100280.09;6255060;22;44712;-84
2022/06/23 06:14:44;;;;;;;;;10.00;8.00;;;;;23.41;99.31;100279.91;6226564;22;45925;-83
2022/06/23 06:17:18;;;;;;;;;10.67;9.33;;;;;23.28;98.46;100263.34;6252759;22;45161;-83
2022/06/23 06:20:30;;;;;;;;;9.67;9.67;;;;;23.53;97.93;100268.50;6227142;22;44768;-83
2022/06/23 06:23:04;;;;;;;;;9.00;7.33;;;;;23.80;98.41;100262.75;6254618;22;45717;-83
2022/06/23 06:25:37;;;;;;;;;13.00;11.00;;;;;24.12;97.07;100264.75;6253594;22;45315;-83
2022/06/23 06:28:32;;;;;;;;;9.33;9.00;;;;;24.35;96.70;100258.16;6226609;22;45314;-83
2022/06/23 06:31:02;;;;;;;;;7.67;7.00;;;;;24.37;95.07;100260.78;6223426;22;45374;-82
2022/06/23 06:33:54;;;;;;;;;9.00;8.33;;;;;24.32;94.48;100262.88;6254443;22;45410;-83
2022/06/23 06:36:25;;;;;;;;;9.00;9.00;;;;;24.30;94.78;100275.66;6225698;22;46949;-83
2022/06/23 06:38:56;;;;;;;;;11.67;11.00;;;;;24.25;94.77;100266.84;6250970;22;45448;-84
2022/06/23 06:41:21;;;;;;;;;10.00;10.00;;;;;24.35;93.63;100273.59;6255123;22;44883;-83
2022/06/23 06:43:47;;;;;;;;;9.00;9.00;;;;;24.38;92.64;100262.56;6253875;22;45371;-83
2022/06/23 06:52:59;;;;;;;;;10.33;8.33;;;;;24.61;91.10;100271.41;6256857;22;45774;-84
2022/06/23 06:55:32;;;;;;;;;8.00;7.00;;;;;24.75;90.13;100271.56;6257020;22;45259;-83
2022/06/23 06:58:41;;;;;;;;;10.00;10.00;;;;;24.99;90.64;100268.53;6252790;22;47066;-84
2022/06/23 07:01:16;;;;;;;;;8.67;8.67;;;;;25.27;89.31;100278.81;6225191;22;45444;-84
2022/06/23 07:03:47;;;;;;;;;10.67;10.67;;;;;25.35;87.74;100271.13;6254377;22;45841;-84
2022/06/23 07:06:35;;;;;;;;;9.00;7.67;;;;;25.36;86.75;100272.88;6228044;22;45346;-84
2022/06/23 07:09:10;;;;;;;;;9.00;9.00;;;;;25.31;86.75;100264.09;6254552;22;46300;-83
2022/06/23 07:11:50;;;;;;;;;8.00;7.00;;;;;25.27;85.75;100273.34;6256052;22;44696;-83
2022/06/23 07:14:55;;;;;;;;;9.33;8.00;;;;;25.05;86.31;100279.94;6257505;22;45209;-82
2022/06/23 07:17:38;;;;;;;;;8.67;6.67;;;;;24.94;87.44;100261.50;5882918;22;8468880;-83
2022/06/23 07:20:24;;;;;;;;;7.33;6.67;;;;;24.99;86.75;100257.66;6255890;22;45414;-83
2022/06/23 07:23:01;;;;;;;;;5.33;5.33;;;;;25.14;86.49;100268.56;6228408;22;46578;-83
2022/06/23 07:25:43;;;;;;;;;6.00;6.00;;;;;25.26;85.84;100264.31;6229830;22;45386;-82
2022/06/23 07:28:27;;;;;;;;;5.67;5.67;;;;;25.37;85.27;100280.09;6229146;22;45635;-82
2022/06/23 07:31:05;;;;;;;;;5.67;5.67;;;;;25.36;84.51;100289.19;6229369;22;45795;-82
2022/06/23 07:36:57;;;;;;;;;7.33;7.33;;;;;25.43;83.53;100292.47;6264023;22;45604;-83
2022/06/23 07:39:29;;;;;;;;;8.67;8.67;;;;;25.49;84.19;100294.84;6237231;22;44822;-82
2022/06/23 07:42:36;;;;;;;;;7.00;7.00;;;;;25.41;84.91;100297.09;6262699;22;45372;-83
2022/06/23 07:45:22;;;;;;;;;11.00;9.33;;;;;25.56;83.37;100301.72;6236076;22;45441;-83
2022/06/23 07:47:49;;;;;;;;;7.33;7.33;;;;;25.52;83.57;100298.28;6261092;22;44933;-83
2022/06/23 07:50:17;;;;;;;;;7.00;7.00;;;;;25.58;83.73;100299.78;6235316;22;44829;-83
2022/06/23 07:52:46;;;;;;;;;6.33;6.33;;;;;25.71;83.78;100303.59;6262058;22;44819;-83
2022/06/23 07:55:29;;;;;;;;;9.00;9.00;;;;;25.86;82.60;100306.44;6210356;22;45419;-82
2022/06/23 07:57:55;;;;;;;;;7.33;7.33;;;;;25.83;81.30;100314.75;6260487;22;45525;-82
2022/06/23 08:00:24;;;;;;;;;9.33;8.00;;;;;25.90;81.99;100310.75;6261090;22;44796;-83
2022/06/23 08:03:06;;;;;;;;;8.00;7.00;;;;;25.87;82.06;100305.44;6233837;22;45268;-83
2022/06/23 08:05:45;;;;;;;;;7.00;7.00;;;;;26.06;81.37;100300.75;6264684;22;45285;-82
2022/06/23 08:08:21;;;;;;;;;9.67;9.00;;;;;26.31;80.82;100294.72;6236002;22;44728;-82
2022/06/23 08:13:47;;;;;;;;;12.00;9.67;;;;;26.32;79.80;100301.09;6170289;23;45265;-82
2022/06/23 08:19:28;;;;;;;;;6.00;6.00;;;;;26.37;78.37;100300.81;6170116;23;44797;-82
2022/06/23 08:22:05;;;;;;;;;10.00;8.00;;;;;26.42;77.57;100310.47;6143642;23;45330;-82
2022/06/23 08:24:33;;;;;;;;;9.67;6.67;;;;;26.25;77.49;100273.28;6168126;23;45613;-82
2022/06/23 08:27:12;;;;;;;;;10.33;8.00;;;;;26.40;76.27;100287.88;6144537;23;46842;-83
2022/06/23 08:29:47;;;;;;;;;8.67;8.67;;;;;26.29;77.77;100254.91;6170926;22;44803;-83
2022/06/23 08:32:15;;;;;;;;;9.00;9.00;;;;;26.45;76.92;100277.56;6145822;23;45568;-82
2022/06/23 08:35:03;;;;;;;;;8.33;8.00;;;;;26.35;76.23;100252.69;6148608;23;44794;-83
2022/06/23 08:37:36;;;;;;;;;8.33;8.33;;;;;26.61;75.91;100293.06;6140933;23;47199;-82
2022/06/23 08:40:14;;;;;;;;;12.00;9.00;;;;;26.38;74.87;100251.66;6141391;23;44690;-81
2022/06/23 08:42:58;;;;;;;;;9.33;9.33;;;;;26.58;75.54;100290.50;6142377;23;45351;-82
2022/06/23 08:45:39;;;;;;;;;7.67;6.00;;;;;26.65;75.05;100297.34;6168348;23;44880;-82
2022/06/23 08:48:39;;;;;;;;;5.33;4.00;;;;;26.76;74.19;100299.44;6168059;23;45341;-81
2022/06/23 08:51:21;;;;;;;;;9.33;9.33;;;;;26.87;74.48;100299.66;6215815;22;45259;-82
2022/06/23 08:54:16;;;;;;;;;6.00;5.67;;;;;26.84;73.99;100303.44;6262061;22;45275;-83
2022/06/23 08:56:54;;;;;;;;;8.67;8.67;;;;;26.64;73.94;100301.03;6221049;22;45307;-81
2022/06/23 08:59:32;;;;;;;;;10.00;10.00;;;;;26.66;75.39;100305.47;6231046;22;46641;-83
2022/06/23 09:02:13;;;;;;;;;7.33;7.33;;;;;26.69;75.20;100293.47;6257738;22;44871;-81
2022/06/23 09:05:01;;;;;;;;;7.00;7.00;;;;;26.86;74.51;100287.84;6229222;22;45240;-82
2022/06/23 09:07:52;;;;;;;;;7.33;7.33;;;;;27.10;73.54;100303.69;6255066;22;45334;-83
2022/06/23 09:10:34;;;;;;;;;9.00;8.33;;;;;27.07;71.49;100298.44;6252789;22;46904;-82
2022/06/23 09:16:57;;;;;;;;;8.67;8.67;;;;;27.06;73.04;100302.13;6256120;22;45374;-82
2022/06/23 09:19:50;;;;;;;;;8.00;8.00;;;;;27.25;73.18;100308.25;6231401;22;45346;-82
2022/06/23 09:22:15;;;;;;;;;7.33;7.33;;;;;27.27;71.24;100294.50;6135084;23;45050;-82
2022/06/23 09:25:12;;;;;;;;;10.00;8.00;;;;;27.14;70.97;100299.81;6134165;23;45422;-82
2022/06/23 09:27:40;;;;;;;;;6.67;6.67;;;;;27.03;71.40;100305.06;6111172;23;45360;-82
2022/06/23 09:30:21;;;;;;;;;8.33;7.00;;;;;27.06;72.11;100310.31;6109376;23;45245;-82
2022/06/23 09:33:03;;;;;;;;;7.67;7.00;;;;;27.08;70.29;100300.19;6106848;23;47153;-82
2022/06/23 09:35:47;;;;;;;;;8.33;8.33;;;;;27.01;71.33;100296.09;6110041;23;45477;-83
2022/06/23 09:38:37;;;;;;;;;7.33;7.00;;;;;27.03;70.85;100294.16;6110209;23;44813;-84
2022/06/23 09:41:32;;;;;;;;;7.67;7.67;;;;;27.03;70.44;100291.44;6112988;23;45586;-83
2022/06/23 09:44:09;;;;;;;;;6.00;6.00;;;;;27.03;71.99;100291.44;6134168;23;47161;-82
2022/06/23 09:46:43;;;;;;;;;10.00;9.00;;;;;27.03;71.09;100281.38;6134644;23;45337;-82
2022/06/23 09:49:27;;;;;;;;;7.67;7.33;;;;;26.99;71.81;100285.28;6107122;23;45269;-82
2022/06/23 09:52:46;;;;;;;;;7.33;7.33;;;;;26.97;70.11;100283.63;6107179;23;45461;-82
2022/06/23 09:55:33;;;;;;;;;8.33;7.67;;;;;27.00;70.30;100287.00;6112811;23;46849;-82
2022/06/23 09:58:20;;;;;;;;;5.00;5.00;;;;;26.99;70.39;100282.53;6107446;23;45333;-82
2022/06/23 10:01:08;;;;;;;;;8.00;8.00;;;;;26.94;69.51;100281.94;6228804;22;44749;-81
2022/06/23 10:03:52;;;;;;;;;10.00;8.33;;;;;26.87;69.85;100280.56;6257234;22;44907;-83
2022/06/23 10:06:21;;;;;;;;;6.33;6.33;;;;;26.77;69.72;100291.16;6256638;22;45385;-83
2022/06/23 10:09:15;;;;;;;;;6.33;6.33;;;;;26.79;70.91;100282.88;6230469;22;44804;-81
2022/06/23 10:12:08;;;;;;;;;8.00;6.00;;;;;26.90;70.60;100280.38;6253644;22;45394;-84
2022/06/23 10:15:11;;;;;;;;;7.33;7.33;;;;;27.07;71.47;100282.06;6254539;22;45359;-82
2022/06/23 10:17:40;;;;;;;;;8.33;7.67;;;;;27.16;71.02;100286.06;6227906;22;48169;-82
2022/06/23 10:20:39;;;;;;;;;6.00;6.00;;;;;27.23;69.77;100285.63;6228639;22;45323;-83
2022/06/23 10:23:08;;;;;;;;;7.00;7.00;;;;;27.19;70.40;100289.50;6228278;22;45392;-82
2022/06/23 10:25:55;;;;;;;;;6.33;5.33;;;;;27.14;70.02;100280.69;6256131;22;45450;-83
2022/06/23 10:28:26;;;;;;;;;10.00;10.00;;;;;27.20;70.17;100282.16;6256628;22;45365;-84
2022/06/23 10:30:57;;;;;;;;;7.67;7.67;;;;;27.31;70.00;100291.47;6230797;22;45180;-83
2022/06/23 10:33:32;;;;;;;;;6.67;6.67;;;;;27.53;70.04;100280.06;6252730;22;44820;-82
2022/06/23 10:36:16;;;;;;;;;8.33;7.67;;;;;27.85;68.96;100281.69;6228245;22;44797;-82
2022/06/23 10:39:08;;;;;;;;;5.67;5.67;;;;;28.08;67.79;100274.75;6256830;22;45302;-83
2022/06/23 10:45:13;;;;;;;;;6.67;6.67;;;;;28.45;66.90;100277.75;6258040;22;45461;-84
2022/06/23 10:47:49;;;;;;;;;6.33;6.33;;;;;28.57;65.08;100262.38;6231309;22;44833;-80
2022/06/23 10:50:27;;;;;;;;;6.00;6.00;;;;;28.54;59.00;100260.72;6261086;22;45334;-81
2022/06/23 10:52:55;;;;;;;;;7.00;6.00;;;;;28.46;55.67;100260.31;6232636;22;44696;-80
2022/06/23 10:55:40;;;;;;;;;6.33;6.33;;;;;28.41;54.32;100260.66;6257432;22;45376;-80
2022/06/23 10:58:12;;;;;;;;;7.00;7.00;;;;;28.41;54.97;100271.59;6255561;22;44841;-82
2022/06/23 11:01:03;;;;;;;;;7.00;6.67;;;;;28.45;54.04;100259.47;6231836;22;47331;-80
2022/06/23 11:03:32;;;;;;;;;10.33;10.33;;;;;28.37;52.04;100261.84;6137102;23;44921;-81
2022/06/23 11:06:09;;;;;;;;;8.33;7.00;;;;;28.30;51.22;100263.25;6110523;23;44754;-80
2022/06/23 11:08:56;;;;;;;;;5.67;5.67;;;;;28.32;51.44;100269.50;6113623;23;45594;-81
2022/06/23 11:11:58;;;;;;;;;10.67;9.33;;;;;28.26;50.78;100259.84;6120129;23;46627;-82
2022/06/23 11:14:35;;;;;;;;;9.00;7.00;;;;;28.05;50.60;100255.81;6119190;23;45273;-81
2022/06/23 11:17:34;;;;;;;;;7.67;7.00;;;;;27.92;50.57;100263.94;6110632;23;45410;-80
2022/06/23 11:20:25;;;;;;;;;8.00;8.00;;;;;27.92;52.50;100258.47;6088318;23;44922;-81
2022/06/23 11:23:17;;;;;;;;;8.33;8.00;;;;;28.02;51.39;100254.16;6094241;23;45373;-82
2022/06/23 11:25:52;;;;;;;;;7.00;7.00;;;;;28.14;50.80;100252.47;6103585;23;45432;-81
2022/06/23 11:29:04;;;;;;;;;5.67;5.33;;;;;28.29;51.04;100245.94;6084707;23;44696;-82
2022/06/23 11:32:11;;;;;;;;;6.00;6.00;;;;;28.47;49.23;100256.63;6026014;23;44895;-82
2022/06/23 11:34:39;;;;;;;;;7.00;7.00;;;;;28.55;48.35;100245.19;5997716;23;45562;-81
2022/06/23 11:37:14;;;;;;;;;6.33;6.33;;;;;28.58;48.29;100240.41;5998193;23;45246;-83
2022/06/23 11:40:16;;;;;;;;;6.33;6.33;;;;;28.49;46.76;100235.50;6047402;23;44744;-81
2022/06/23 11:43:12;;;;;;;;;5.67;5.67;;;;;28.38;47.22;100244.47;6114638;23;45302;-82
2022/06/23 11:45:52;;;;;;;;;6.33;5.33;;;;;28.47;47.67;100224.66;6137542;23;45576;-83
2022/06/23 11:48:35;;;;;;;;;6.33;6.33;;;;;28.51;48.08;100234.44;6137989;23;44898;-81
2022/06/23 11:51:29;;;;;;;;;7.00;7.00;;;;;28.46;47.95;100228.41;6115476;23;45325;-82
2022/06/23 11:54:41;;;;;;;;;5.33;5.00;;;;;28.46;47.56;100227.50;6141001;23;44767;-82
2022/06/23 11:57:43;;;;;;;;;7.00;7.00;;;;;28.48;47.41;100220.06;6082470;23;45530;-80
2022/06/23 12:00:17;;;;;;;;;6.00;6.00;;;;;28.48;47.09;100220.97;6082032;23;44907;-81
2022/06/23 12:03:24;;;;;;;;;9.67;7.00;;;;;28.49;47.68;100213.63;6081564;23;44826;-82
2022/06/23 12:06:22;;;;;;;;;7.67;7.00;;;;;28.40;47.39;100193.28;6077332;23;44835;-83
2022/06/23 12:09:00;;;;;;;;;6.00;6.00;;;;;28.52;47.24;100200.66;6110873;23;46943;-82
2022/06/23 12:11:33;;;;;;;;;6.33;6.33;;;;;28.67;46.88;100211.50;6086830;23;45405;-82
2022/06/23 12:14:02;;;;;;;;;7.00;7.00;;;;;28.58;46.36;100185.69;6087133;23;44727;-82
2022/06/23 12:16:33;;;;;;;;;6.00;6.00;;;;;28.48;47.21;100174.47;6060259;23;44997;-81
2022/06/23 12:19:05;;;;;;;;;7.00;7.00;;;;;28.63;46.55;100193.56;6078568;23;45428;-81
2022/06/23 12:22:24;;;;;;;;;7.67;5.67;;;;;28.72;46.29;100193.78;6107060;23;45403;-80
2022/06/23 12:25:21;;;;;;;;;7.00;7.00;;;;;28.81;45.72;100181.31;6108856;23;45300;-82
2022/06/23 12:28:14;;;;;;;;;4.67;4.67;;;;;28.67;45.79;100162.25;6082246;23;45376;-79
2022/06/23 12:31:20;;;;;;;;;5.67;5.67;;;;;28.71;46.15;100155.56;6084646;23;46753;-81
2022/06/23 12:34:24;;;;;;;;;7.00;7.00;;;;;28.84;44.98;100164.66;6128538;23;45338;-82
2022/06/23 12:36:58;;;;;;;;;5.00;5.00;;;;;29.05;44.35;100175.06;6176101;23;45260;-83
2022/06/23 12:39:44;;;;;;;;;4.00;4.00;;;;;29.12;42.82;100181.88;6197259;23;45277;-81
2022/06/23 12:42:24;;;;;;;;;7.33;6.67;;;;;29.05;43.44;100161.38;6173855;23;45897;-82
2022/06/23 12:45:43;;;;;;;;;;;;;;;;;;;;;
2022/06/23 12:48:51;;;;;;;;;6.00;6.00;;;;;29.52;44.32;100176.22;6196734;23;68378;-81
2022/06/23 12:51:58;;;;;;;;;5.00;5.00;;;;;29.51;42.04;100163.47;6107100;23;45555;-81
2022/06/23 12:54:45;;;;;;;;;5.00;4.00;;;;;29.42;43.40;100162.31;6080724;23;47084;-82
2022/06/23 12:57:43;;;;;;;;;6.67;5.00;;;;;29.47;42.32;100168.34;6108086;23;46070;-81